Nimbus Weather Services

Informe meteorológico para Carrasco, Uruguay. El informe se hizo hace 34 minutos, a las 15:00 UTC. El viento soplaba a una velocidad de 2.6 m/s (5.8 millas por hora) del sur-suroeste (210°). La temperatura era 13 °C (55 °F), con un punto de rocío de 11 °C (52 °F). La presión atmosférica era 1021 hPa (30.15 inHg). Había una humedad relativa del 87.6%. Cielo nublado a partir de los 701 metros (2300 pies) En aquel momento la visibilidad global era mayor de 10 kilómetros (6.2 millas).

La clave METAR es: SUMU 281500Z 21005KT 9999 OVC023 13/11 Q1021 NOSIG

Consulta realizada el Miércoles 28 de Junio de 2017 12:34. Tiempo usado para generar esta pagina:2,488 ms.